createdAt,value
2018-04-18T00:58:47.203Z,16.77
2018-04-18T01:42:49.350Z,10.13
2018-04-18T01:44:54.987Z,13.07
2018-04-18T01:47:07.724Z,13.17
2018-04-18T01:49:25.066Z,14.97
2018-04-18T01:51:27.995Z,12.00
2018-04-18T01:55:42.206Z,10.90
2018-04-18T01:57:45.833Z,13.13
2018-04-18T02:02:15.538Z,13.93
2018-04-18T02:04:22.066Z,14.63
2018-04-18T02:06:31.301Z,12.53
2018-04-18T02:08:58.246Z,12.10
2018-04-18T02:11:14.424Z,12.77
2018-04-18T02:13:24.190Z,14.20
2018-04-18T02:15:27.092Z,13.40
2018-04-18T02:19:38.763Z,13.00
2018-04-18T02:21:41.605Z,16.40
2018-04-18T02:23:44.438Z,13.47
2018-04-18T02:25:47.260Z,14.60
2018-04-18T02:27:50.212Z,14.07
2018-04-18T02:29:53.268Z,19.23
2018-04-18T02:31:56.176Z,13.10
2018-04-18T02:55:57.758Z,13.90
2018-04-18T02:58:05.610Z,13.07
2018-04-18T03:10:21.771Z,10.80
2018-04-18T03:12:24.880Z,15.87
2018-04-18T03:14:27.736Z,13.20
2018-04-18T03:21:48.481Z,15.60
2018-04-18T03:26:08.257Z,17.00
2018-04-18T03:28:14.277Z,15.07
2018-04-18T03:30:19.958Z,14.13
2018-04-18T03:32:37.825Z,15.63
2018-04-18T03:37:23.175Z,21.93
2018-04-18T03:39:29.091Z,20.27
2018-04-18T03:48:56.234Z,15.70
2018-04-18T03:50:59.119Z,18.10
2018-04-18T03:53:04.394Z,16.13
2018-04-18T03:55:11.218Z,15.90
2018-04-18T03:57:16.309Z,14.53
2018-04-18T03:59:19.336Z,18.07
2018-04-18T04:01:22.322Z,20.40
2018-04-18T04:05:52.548Z,13.33
2018-04-18T04:08:04.906Z,18.03
2018-04-18T04:10:12.278Z,17.00
2018-04-18T04:17:53.505Z,15.67
2018-04-18T04:24:59.482Z,13.57
2018-04-18T04:27:02.493Z,14.47
2018-04-18T04:29:05.329Z,17.80
2018-04-18T04:31:08.374Z,20.17
2018-04-18T04:33:11.259Z,19.17
2018-04-18T04:35:17.126Z,16.00
2018-04-18T04:44:30.071Z,14.83
2018-04-18T04:47:24.729Z,19.00
2018-04-18T04:56:48.098Z,18.90
2018-04-18T05:03:55.699Z,19.83
2018-04-18T05:08:08.343Z,15.60
2018-04-18T05:12:32.049Z,16.33
2018-04-18T05:14:44.960Z,18.30
2018-04-18T05:16:53.213Z,22.00
2018-04-18T05:23:30.581Z,20.10
2018-04-18T05:25:33.609Z,17.80
2018-04-18T05:30:01.760Z,15.73
2018-04-18T05:32:04.973Z,17.33
2018-04-18T05:34:22.315Z,21.93
2018-04-18T05:36:25.833Z,22.00
2018-04-18T05:38:32.121Z,20.07
2018-04-18T05:40:35.791Z,17.93
2018-04-18T05:42:38.722Z,21.13
2018-04-18T05:44:45.923Z,17.50
2018-04-18T05:46:48.825Z,19.90
2018-04-18T05:48:52.044Z,21.73
2018-04-18T05:50:54.943Z,19.93
2018-04-18T05:55:52.796Z,29.40
2018-04-18T05:57:55.655Z,21.30
2018-04-18T05:59:58.509Z,17.70
2018-04-18T06:02:03.820Z,22.00
2018-04-18T06:06:32.162Z,31.37
2018-04-18T06:08:35.165Z,22.57
2018-04-18T06:10:38.727Z,37.93
2018-04-18T06:12:42.310Z,27.10
2018-04-18T06:14:45.130Z,31.20
2018-04-18T06:16:48.002Z,27.70
2018-04-18T06:18:50.889Z,27.77
2018-04-18T06:20:53.712Z,33.43
2018-04-18T06:25:09.118Z,29.90
2018-04-18T06:27:11.967Z,28.83
2018-04-18T06:29:16.163Z,25.63
2018-04-18T06:31:19.030Z,75.93
2018-04-18T06:33:21.854Z,25.90
2018-04-18T06:35:26.948Z,39.73
2018-04-18T06:37:29.833Z,33.57
2018-04-18T06:39:32.649Z,29.50
2018-04-18T06:41:35.593Z,27.43
2018-04-18T06:43:38.461Z,28.20
2018-04-18T06:45:41.325Z,27.00
2018-04-18T06:47:44.258Z,28.30
2018-04-18T06:49:47.092Z,28.27
2018-04-18T06:51:50.041Z,27.00
2018-04-18T06:53:52.897Z,30.53
2018-04-18T06:55:55.722Z,28.97
2018-04-18T06:57:58.566Z,28.47
2018-04-18T07:00:01.381Z,34.67
2018-04-18T07:02:04.246Z,30.03
2018-04-18T07:04:07.129Z,31.50
2018-04-18T07:06:09.958Z,28.67
2018-04-18T07:08:12.788Z,27.07
2018-04-18T07:10:15.821Z,28.63
2018-04-18T07:12:18.701Z,33.00
2018-04-18T07:14:21.543Z,33.60
2018-04-18T07:16:24.410Z,24.90
2018-04-18T07:18:27.233Z,30.47
2018-04-18T07:20:30.048Z,28.67
2018-04-18T07:22:32.917Z,26.20
2018-04-18T07:24:36.423Z,33.70
2018-04-18T07:26:39.421Z,24.77
2018-04-18T07:28:44.006Z,27.07
2018-04-18T07:30:47.515Z,23.20
2018-04-18T07:32:50.349Z,29.90
2018-04-18T07:34:53.246Z,29.17
2018-04-18T07:36:56.089Z,26.23
2018-04-18T07:38:58.953Z,21.10
2018-04-18T07:41:01.963Z,30.33
2018-04-18T07:43:04.924Z,27.50
2018-04-18T07:45:08.482Z,26.20
2018-04-18T07:47:11.435Z,27.83
2018-04-18T07:49:14.294Z,26.63
2018-04-18T07:51:17.109Z,27.70
2018-04-18T07:53:19.937Z,25.13
2018-04-18T07:55:23.523Z,22.90
2018-04-18T07:57:26.355Z,29.40
2018-04-18T07:59:29.206Z,38.87
2018-04-18T08:01:32.133Z,27.33
2018-04-18T08:03:34.998Z,25.30
2018-04-18T08:05:38.590Z,27.73
2018-04-18T08:07:41.797Z,75.33
2018-04-18T08:09:44.701Z,51.10
2018-04-18T08:11:47.540Z,25.20
2018-04-18T08:13:51.118Z,25.10
2018-04-18T08:15:54.006Z,24.20
2018-04-18T08:17:57.657Z,19.07
2018-04-18T08:20:00.513Z,23.63
2018-04-18T08:22:03.398Z,18.07
2018-04-18T08:24:06.264Z,18.23
2018-04-18T08:26:09.136Z,26.07
2018-04-18T08:28:12.573Z,24.23
2018-04-18T08:30:15.389Z,18.77
2018-04-18T08:34:27.761Z,22.07
2018-04-18T08:36:30.638Z,20.70
2018-04-18T08:38:33.522Z,17.63
2018-04-18T08:40:36.373Z,15.10
2018-04-18T08:42:39.226Z,18.27
2018-04-18T08:44:42.365Z,18.90
2018-04-18T08:46:45.916Z,23.50
2018-04-18T08:48:48.797Z,14.83
2018-04-18T08:50:52.265Z,14.27
2018-04-18T08:52:55.866Z,16.03
2018-04-18T08:54:58.697Z,14.03
2018-04-18T08:57:01.830Z,23.20
2018-04-18T08:59:04.689Z,20.53
2018-04-18T09:01:08.876Z,18.77
2018-04-18T09:03:11.743Z,15.10
2018-04-18T09:05:14.893Z,13.90
2018-04-18T09:07:17.768Z,18.03
2018-04-18T09:09:20.613Z,21.33
2018-04-18T09:11:23.459Z,16.33
2018-04-18T09:13:26.285Z,12.50
2018-04-18T09:15:29.126Z,12.73
2018-04-18T09:17:32.627Z,15.90
2018-04-18T09:19:36.057Z,15.07
2018-04-18T09:21:38.986Z,11.10
2018-04-18T09:23:44.798Z,10.63
2018-04-18T09:25:47.667Z,8.83
2018-04-18T09:27:51.425Z,10.23
2018-04-18T09:29:54.393Z,9.13
2018-04-18T09:31:57.266Z,10.23
2018-04-18T09:34:00.185Z,53.83
2018-04-18T09:36:03.030Z,37.40
2018-04-18T09:38:06.607Z,15.43
2018-04-18T09:40:09.654Z,8.57
2018-04-18T09:42:12.585Z,12.63
2018-04-18T09:44:16.086Z,10.87
2018-04-18T09:46:18.919Z,12.47
2018-04-18T09:48:21.786Z,7.93
2018-04-18T09:50:25.214Z,12.10
2018-04-18T09:52:28.414Z,9.07
2018-04-18T09:54:31.350Z,12.17
2018-04-18T09:56:37.262Z,9.33
2018-04-18T10:00:55.584Z,10.27
2018-04-18T10:03:04.521Z,11.00
2018-04-18T10:05:07.413Z,10.13
2018-04-18T10:07:12.579Z,10.13
2018-04-18T10:09:15.722Z,11.33
2018-04-18T10:11:18.574Z,8.57
2018-04-18T10:13:21.433Z,10.17
2018-04-18T10:15:25.065Z,5.73
2018-04-18T10:17:27.957Z,8.80
2018-04-18T10:19:31.422Z,7.23
2018-04-18T10:21:34.436Z,12.70
2018-04-18T10:23:40.289Z,8.87
2018-04-18T10:28:10.718Z,10.40
2018-04-18T10:30:14.795Z,10.40
2018-04-18T10:32:17.738Z,6.70
2018-04-18T10:34:21.545Z,9.60
2018-04-18T10:36:24.386Z,9.57
2018-04-18T10:38:28.714Z,4.00
2018-04-18T10:40:33.001Z,8.10
2018-04-18T10:42:35.834Z,7.63
2018-04-18T10:44:40.845Z,9.20
2018-04-18T10:46:46.116Z,24.43
2018-04-18T10:49:01.610Z,14.93
2018-04-18T10:51:09.133Z,11.47
2018-04-18T10:53:15.737Z,8.27
2018-04-18T10:55:20.344Z,8.03
2018-04-18T10:57:24.510Z,8.07
2018-04-18T10:59:31.160Z,6.33
2018-04-18T11:05:58.408Z,8.17
2018-04-18T11:08:04.766Z,6.93
2018-04-18T11:10:09.905Z,5.00
2018-04-18T11:12:15.702Z,7.63
2018-04-18T11:14:20.325Z,4.37
2018-04-18T11:16:25.774Z,5.10
2018-04-18T11:18:30.901Z,6.17
2018-04-18T11:20:37.793Z,7.90
2018-04-18T11:22:40.706Z,5.90
2018-04-18T11:24:43.827Z,9.13
2018-04-18T11:26:46.684Z,8.90
2018-04-18T11:28:52.410Z,7.60
2018-04-18T11:30:55.343Z,4.67
2018-04-18T11:32:58.165Z,6.70
2018-04-18T11:35:02.558Z,7.50
2018-04-18T11:41:30.883Z,6.17
2018-04-18T11:43:34.842Z,5.87
2018-04-18T11:45:39.908Z,14.00
2018-04-18T11:47:44.350Z,13.93
2018-04-18T11:49:53.872Z,6.03
2018-04-18T11:51:56.906Z,7.90
2018-04-18T11:54:03.586Z,8.13
2018-04-18T11:58:22.030Z,5.67
2018-04-18T12:00:26.637Z,4.47
2018-04-18T12:02:31.040Z,5.53
2018-04-18T12:04:44.671Z,4.47
2018-04-18T12:07:00.892Z,6.43
2018-04-18T12:09:12.542Z,7.10
2018-04-18T12:16:01.238Z,11.60
2018-04-18T12:20:17.190Z,5.03
2018-04-18T12:22:24.546Z,6.40
2018-04-18T12:24:29.724Z,6.07
2018-04-18T12:26:35.867Z,6.20
2018-04-18T12:28:50.051Z,6.03
2018-04-18T12:33:26.145Z,6.60
2018-04-18T12:35:38.218Z,7.47
2018-04-18T12:37:47.750Z,4.20
2018-04-18T12:42:06.375Z,6.50
2018-04-18T12:44:22.960Z,8.90
2018-04-18T12:46:33.280Z,6.30
2018-04-18T12:51:06.206Z,8.83
2018-04-18T12:53:11.438Z,7.93
2018-04-18T12:55:15.457Z,11.63
2018-04-18T12:57:29.394Z,7.13
2018-04-18T12:59:48.692Z,5.90
2018-04-18T13:04:13.901Z,5.90
2018-04-18T13:06:18.361Z,8.23
2018-04-18T13:08:26.532Z,4.53
2018-04-18T13:10:29.517Z,9.23
2018-04-18T13:12:36.928Z,8.60
2018-04-18T13:16:59.233Z,8.80
2018-04-18T13:19:17.221Z,9.17
2018-04-18T13:21:33.930Z,6.53
2018-04-18T13:23:46.229Z,8.30
2018-04-18T13:28:21.035Z,8.00
2018-04-18T13:30:27.634Z,7.20
2018-04-18T13:32:31.580Z,7.10
2018-04-18T13:34:45.006Z,7.80
2018-04-18T13:41:22.307Z,7.13
2018-04-18T13:47:57.659Z,7.97
2018-04-18T13:54:33.859Z,7.73
2018-04-18T13:56:47.092Z,8.13
2018-04-18T14:01:34.322Z,7.90
2018-04-18T14:30:39.190Z,8.33
2018-04-18T14:32:49.882Z,8.20
2018-04-18T14:39:41.864Z,9.90
2018-04-18T14:41:52.383Z,6.87
2018-04-18T14:44:04.951Z,10.07
2018-04-18T14:46:12.189Z,6.70
2018-04-18T14:48:30.122Z,6.30
2018-04-18T14:57:43.995Z,6.53
2018-04-18T15:00:04.910Z,8.53
2018-04-18T15:37:38.082Z,9.13
2018-04-18T15:39:40.934Z,8.17
2018-04-18T15:41:43.769Z,6.77
2018-04-18T15:43:47.694Z,8.10
2018-04-18T15:45:50.774Z,7.83
2018-04-18T15:47:53.653Z,10.73
2018-04-18T15:49:56.712Z,10.20
2018-04-18T15:52:04.887Z,6.93
2018-04-18T15:54:07.718Z,9.60
2018-04-18T15:56:11.423Z,7.93
2018-04-18T15:58:17.437Z,9.63
2018-04-18T16:00:21.764Z,8.67
2018-04-18T16:02:26.101Z,13.47
2018-04-18T16:04:28.981Z,12.37
2018-04-18T16:06:32.561Z,9.77
2018-04-18T16:08:39.325Z,10.50
2018-04-18T16:10:42.225Z,11.00
2018-04-18T16:12:45.132Z,11.27
2018-04-18T16:14:48.290Z,8.03
2018-04-18T16:16:51.129Z,9.83
2018-04-18T16:18:54.087Z,11.40
2018-04-18T16:20:56.978Z,14.23
2018-04-18T16:23:00.454Z,9.10
2018-04-18T16:25:03.401Z,11.33
2018-04-18T16:27:07.035Z,12.07
2018-04-18T16:29:16.033Z,9.90
2018-04-18T16:31:18.949Z,13.90
2018-04-18T16:33:21.794Z,11.37
2018-04-18T16:35:24.642Z,9.77
2018-04-18T16:37:28.842Z,11.37
2018-04-18T16:39:35.290Z,10.97
2018-04-18T16:41:40.207Z,13.13
2018-04-18T16:47:45.823Z,15.30
2018-04-18T16:49:51.938Z,11.40
2018-04-18T16:51:57.782Z,11.00
2018-04-18T16:54:01.690Z,7.30
2018-04-18T17:03:41.264Z,11.30
2018-04-18T17:05:51.224Z,12.67
2018-04-18T17:08:05.293Z,18.80
2018-04-18T17:12:38.635Z,9.30
2018-04-18T17:14:45.141Z,11.40
2018-04-18T17:16:49.004Z,11.90
2018-04-18T17:18:56.374Z,10.13
2018-04-18T17:21:02.739Z,11.00
2018-04-18T17:23:16.730Z,12.03
2018-04-18T17:25:19.616Z,13.70
2018-04-18T17:27:25.323Z,12.00
2018-04-18T17:29:30.518Z,9.10
2018-04-18T17:31:40.828Z,7.07
2018-04-18T17:33:44.531Z,8.33
2018-04-18T17:35:47.405Z,11.67
2018-04-18T17:37:52.602Z,12.80
2018-04-18T17:42:14.860Z,11.47
2018-04-18T17:44:21.795Z,8.60
2018-04-18T17:46:24.843Z,12.23
2018-04-18T17:48:31.655Z,16.13
2018-04-18T17:50:37.697Z,7.60
2018-04-18T17:52:41.638Z,7.07
2018-04-18T17:54:48.714Z,8.90
2018-04-18T17:56:57.400Z,9.80
2018-04-18T17:59:03.398Z,10.60
2018-04-18T18:01:06.401Z,8.93
2018-04-18T18:05:23.340Z,10.57
2018-04-18T18:07:26.950Z,9.40
2018-04-18T18:09:30.126Z,8.40
2018-04-18T18:11:38.698Z,8.60
2018-04-18T18:16:29.948Z,10.03
2018-04-18T18:18:47.000Z,11.90
2018-04-18T18:21:05.243Z,10.17
2018-04-18T18:23:30.296Z,10.30
2018-04-18T18:25:34.902Z,14.93
2018-04-18T18:28:02.775Z,19.70
2018-04-18T20:44:30.531Z,10.80
2018-04-18T20:53:35.666Z,11.00
2018-04-18T21:00:27.017Z,7.43
2018-04-18T21:02:32.949Z,8.93
2018-04-18T21:04:36.102Z,8.40
2018-04-18T21:06:43.270Z,10.07
2018-04-18T21:08:46.446Z,8.80
2018-04-18T21:10:49.553Z,12.80
2018-04-18T21:12:53.719Z,9.27
2018-04-18T21:14:56.626Z,10.97
2018-04-18T21:17:00.379Z,15.13
2018-04-18T21:19:03.521Z,11.20
2018-04-18T21:21:07.952Z,11.37
2018-04-18T21:23:13.112Z,11.73
2018-04-18T21:25:15.974Z,9.97
2018-04-18T21:27:19.474Z,11.23
2018-04-18T21:29:22.358Z,13.67
2018-04-18T21:31:25.397Z,14.20
2018-04-18T21:33:28.490Z,12.60
2018-04-18T21:37:44.578Z,10.70
2018-04-18T21:39:48.788Z,11.13
2018-04-18T21:41:51.773Z,14.33
2018-04-18T21:43:54.688Z,11.13
2018-04-18T21:45:57.680Z,10.10
2018-04-18T21:48:00.514Z,12.80
2018-04-18T21:50:03.366Z,12.80
2018-04-18T21:52:06.202Z,15.50
2018-04-18T21:54:09.034Z,12.37
2018-04-18T21:56:11.847Z,12.53
2018-04-18T21:58:18.344Z,15.30
2018-04-18T22:00:21.894Z,19.20
2018-04-18T22:02:27.255Z,17.70
2018-04-18T22:04:30.084Z,15.27
2018-04-18T22:06:34.898Z,11.80
2018-04-18T22:08:37.999Z,15.90
2018-04-18T22:10:40.784Z,14.70
2018-04-18T22:12:45.058Z,15.00
2018-04-18T22:14:49.945Z,14.30
2018-04-18T22:16:52.893Z,12.90
2018-04-18T22:19:04.402Z,16.10
2018-04-18T22:23:18.443Z,13.63
2018-04-18T22:25:21.359Z,14.50
2018-04-18T22:27:24.254Z,16.47
2018-04-18T22:29:27.065Z,13.30
2018-04-18T22:31:29.885Z,12.10
2018-04-18T22:33:32.742Z,18.17
2018-04-18T22:35:35.574Z,17.17
2018-04-18T22:37:38.361Z,11.90
2018-04-18T22:41:51.078Z,12.93
2018-04-18T22:43:53.874Z,17.73
2018-04-18T22:45:56.716Z,14.23
2018-04-18T22:48:00.302Z,13.23
2018-04-18T22:50:03.254Z,19.63
2018-04-18T22:52:06.070Z,13.53
2018-04-18T22:54:08.909Z,18.03
2018-04-18T22:56:12.734Z,19.20
2018-04-18T22:58:15.588Z,13.63
2018-04-18T23:00:20.257Z,15.73
2018-04-18T23:02:23.101Z,14.30
2018-04-18T23:04:26.533Z,15.67
2018-04-18T23:06:29.510Z,26.03
2018-04-18T23:08:32.381Z,14.80
2018-04-18T23:10:35.189Z,14.27
2018-04-18T23:12:44.483Z,17.00
2018-04-18T23:14:47.729Z,12.70
2018-04-18T23:16:50.590Z,14.43
2018-04-18T23:18:54.512Z,15.20
2018-04-18T23:20:57.333Z,14.97
2018-04-18T23:23:00.888Z,16.50
2018-04-18T23:25:03.976Z,12.53
2018-04-18T23:27:06.809Z,14.77
2018-04-18T23:29:09.659Z,17.23
2018-04-18T23:31:12.946Z,21.53
2018-04-18T23:33:16.862Z,19.60
2018-04-18T23:35:19.716Z,17.90
2018-04-18T23:37:22.577Z,15.20
2018-04-18T23:39:25.470Z,14.13
2018-04-18T23:41:28.722Z,15.27
2018-04-18T23:43:31.729Z,15.90
2018-04-18T23:45:34.558Z,15.50
2018-04-18T23:47:38.483Z,20.40
2018-04-18T23:49:42.289Z,17.17
2018-04-18T23:51:45.909Z,16.37
2018-04-18T23:53:49.881Z,15.60
2018-04-18T23:56:02.316Z,17.67
2018-04-18T23:58:31.758Z,20.50
